Terminal Aerodrome Forecast
Issued by NWS

Home | Current Version | Previous Version | Text Only | Print | Product List | Glossary On
Versions: 1 2 3 4 5 6 7 8 9 10 11 12 13 14 15 16 17 18 19 20 21 22 23 24 25 26 27 28 29 30 31 32 33 34 35 36
000
FTUS43 KBIS 151906 AAB
TAFJMS
TAF AMD
KJMS 151906Z 1519/1618 02009KT P6SM VCTS SCT015 SCT050CB
      TEMPO 1519/1522 4SM -TSRA BKN015CB
     FM160100 04008KT P6SM VCSH OVC015
     FM160400 VRB03KT P6SM SCT009 OVC025=

USA.gov is the U.S. government's official web portal to all federal, state and local government web resources and services.